トロント/ピアソン の空港の天気 - METARとTAF

トロント・ピアソン国際空港 ( CYYZ / YYZ ) - カナダ オンタリオ州トロント
飛行場実況気象(Metar)
観測時間09/24 20:00 EDT (09/25 00:00 UTC)
風向・風速静穏 0m/s
視程10km以上
天気現象
少しの雲 雲底高度 7920m
気温16℃
湿度63%
気圧1015.4hPa
METARCYYZ 250000Z 00000KT 15SM FEW260 16/09 A2998 RMK CI1 CI TR SLP154 DENSITY ALT 800FT
過去の天気等 Google飛行場航空写真 Wunderground天気予報

過去48時間のMETAR

飛行場予報(TAF)
発表時間: 9/24 19:38 EDT (9/24 23:38 UTC)
予報対象時間: 24日20時 EDT ~ 26日2時 EDT
風向・風速南西 3m/s
視程10km以上
少しの雲 雲底高度 7320m
24日22時 EDT から
風向・風速不定 2m/s
視程10km以上
なし
25日4時 EDT から 確率 30% で
視程3220m
天気現象もや
25日10時 EDT から
風向・風速南 5m/s 瞬間風速 10m/s
視程10km以上
全天の8割程度の雲 雲底高度 760m
全天を覆う雲 雲底高度 6100m
25日13時 EDT から
風向・風速南 6m/s 瞬間風速 11m/s
視程10km以上
天気現象弱いしゅう雨
全天を覆う雲 雲底高度 760m
25日14時 EDT から 確率 30% で
視程10km以上
天気現象しゅう雨 もや
25日17時 EDT から
風向・風速西 6m/s
視程10km以上
天気現象弱いしゅう雨
全天を覆う雲 雲底高度 610m
25日20時 EDT から
風向・風速西 4m/s
視程10km以上
全天の8割程度の雲 雲底高度 370m
25日22時 EDT から
風向・風速西南西 4m/s
視程10km以上
全天の4割程度の雲 雲底高度 910m
TAF CYYZ 242338Z 2500/2606 22006KT P6SM FEW240
FM250200 VRB03KT P6SM SKC
PROB30 2508/2511 2SM BR
FM251400 19010G20KT P6SM BKN025 OVC200
FM251700 19012G22KT P6SM -SHRA OVC025
PROB30 2518/2521 21/2SM SHRA BR
FM252100 26012KT P6SM -SHRA OVC020
FM260000 27008KT P6SM BKN012
FM260200 24007KT P6SM SCT030 RMK NXT FCST BY 250300Z